sensor_id;sensor_type;location;lat;lon;timestamp;P1;durP1;ratioP1;P2;durP2;ratioP2
44197;SDS011;30157;55.512;37.764;2022-09-16T00:00:10;7.70;;;5.95;;
44197;SDS011;30157;55.512;37.764;2022-09-16T00:02:36;6.82;;;5.78;;
44197;SDS011;30157;55.512;37.764;2022-09-16T00:05:02;8.80;;;6.32;;
44197;SDS011;30157;55.512;37.764;2022-09-16T00:07:29;9.02;;;6.38;;
44197;SDS011;30157;55.512;37.764;2022-09-16T00:09:54;9.15;;;7.10;;
44197;SDS011;30157;55.512;37.764;2022-09-16T00:12:20;8.55;;;6.32;;
44197;SDS011;30157;55.512;37.764;2022-09-16T00:14:46;9.65;;;6.82;;
44197;SDS011;30157;55.512;37.764;2022-09-16T00:17:12;11.45;;;7.20;;
44197;SDS011;30157;55.512;37.764;2022-09-16T00:19:38;8.90;;;6.10;;
44197;SDS011;30157;55.512;37.764;2022-09-16T00:22:03;8.50;;;6.32;;
44197;SDS011;30157;55.512;37.764;2022-09-16T00:24:30;9.80;;;6.63;;
44197;SDS011;30157;55.512;37.764;2022-09-16T00:26:56;9.25;;;6.35;;
44197;SDS011;30157;55.512;37.764;2022-09-16T00:29:21;7.90;;;6.10;;
44197;SDS011;30157;55.512;37.764;2022-09-16T00:31:47;9.48;;;6.32;;
44197;SDS011;30157;55.512;37.764;2022-09-16T00:34:13;6.75;;;5.10;;
44197;SDS011;30157;55.512;37.764;2022-09-16T00:36:38;7.97;;;5.60;;
44197;SDS011;30157;55.512;37.764;2022-09-16T00:39:04;7.03;;;5.63;;
44197;SDS011;30157;55.512;37.764;2022-09-16T00:41:30;7.45;;;5.45;;
44197;SDS011;30157;55.512;37.764;2022-09-16T00:44:02;8.13;;;5.88;;
44197;SDS011;30157;55.512;37.764;2022-09-16T00:46:40;6.97;;;5.57;;
44197;SDS011;30157;55.512;37.764;2022-09-16T00:49:11;9.23;;;6.20;;
44197;SDS011;30157;55.512;37.764;2022-09-16T00:51:52;8.95;;;5.97;;
44197;SDS011;30157;55.512;37.764;2022-09-16T00:54:26;8.32;;;5.95;;
44197;SDS011;30157;55.512;37.764;2022-09-16T00:57:01;9.52;;;6.47;;
44197;SDS011;30157;55.512;37.764;2022-09-16T00:59:30;7.82;;;5.72;;
44197;SDS011;30157;55.512;37.764;2022-09-16T01:01:59;7.10;;;5.78;;
44197;SDS011;30157;55.512;37.764;2022-09-16T01:04:31;7.80;;;6.10;;
44197;SDS011;30157;55.512;37.764;2022-09-16T01:07:01;9.80;;;6.45;;
44197;SDS011;30157;55.512;37.764;2022-09-16T01:09:27;9.00;;;6.07;;
44197;SDS011;30157;55.512;37.764;2022-09-16T01:11:55;10.02;;;6.82;;
44197;SDS011;30157;55.512;37.764;2022-09-16T01:14:20;9.07;;;6.13;;
44197;SDS011;30157;55.512;37.764;2022-09-16T01:34:25;8.32;;;6.32;;
44197;SDS011;30157;55.512;37.764;2022-09-16T01:42:37;9.98;;;6.85;;
44197;SDS011;30157;55.512;37.764;2022-09-16T01:45:18;12.65;;;8.23;;
44197;SDS011;30157;55.512;37.764;2022-09-16T01:50:47;12.05;;;8.52;;
44197;SDS011;30157;55.512;37.764;2022-09-16T01:53:19;11.48;;;7.90;;
44197;SDS011;30157;55.512;37.764;2022-09-16T01:56:02;14.30;;;9.05;;
44197;SDS011;30157;55.512;37.764;2022-09-16T01:58:45;10.10;;;8.02;;
44197;SDS011;30157;55.512;37.764;2022-09-16T02:01:26;10.23;;;7.65;;
44197;SDS011;30157;55.512;37.764;2022-09-16T02:04:11;10.00;;;7.25;;
44197;SDS011;30157;55.512;37.764;2022-09-16T02:06:44;11.73;;;7.20;;
44197;SDS011;30157;55.512;37.764;2022-09-16T02:09:26;12.88;;;8.20;;
44197;SDS011;30157;55.512;37.764;2022-09-16T02:12:00;11.18;;;8.15;;
44197;SDS011;30157;55.512;37.764;2022-09-16T02:14:31;12.15;;;8.77;;
44197;SDS011;30157;55.512;37.764;2022-09-16T02:17:00;13.85;;;8.90;;
44197;SDS011;30157;55.512;37.764;2022-09-16T02:19:41;12.63;;;8.98;;
44197;SDS011;30157;55.512;37.764;2022-09-16T02:22:13;11.68;;;8.40;;
44197;SDS011;30157;55.512;37.764;2022-09-16T02:24:43;11.80;;;8.15;;
44197;SDS011;30157;55.512;37.764;2022-09-16T02:27:12;12.60;;;8.40;;
44197;SDS011;30157;55.512;37.764;2022-09-16T02:29:45;11.88;;;8.52;;
44197;SDS011;30157;55.512;37.764;2022-09-16T02:32:15;12.73;;;9.20;;
44197;SDS011;30157;55.512;37.764;2022-09-16T02:34:45;14.48;;;10.23;;
44197;SDS011;30157;55.512;37.764;2022-09-16T02:37:16;15.90;;;10.50;;
44197;SDS011;30157;55.512;37.764;2022-09-16T02:39:44;13.20;;;8.88;;
44197;SDS011;30157;55.512;37.764;2022-09-16T02:42:13;15.30;;;9.23;;
44197;SDS011;30157;55.512;37.764;2022-09-16T02:44:41;13.02;;;9.18;;
44197;SDS011;30157;55.512;37.764;2022-09-16T02:47:11;15.63;;;10.43;;
44197;SDS011;30157;55.512;37.764;2022-09-16T02:52:45;14.02;;;9.30;;
44197;SDS011;30157;55.512;37.764;2022-09-16T02:57:55;14.68;;;10.13;;
44197;SDS011;30157;55.512;37.764;2022-09-16T03:00:21;17.73;;;10.35;;
44197;SDS011;30157;55.512;37.764;2022-09-16T03:02:47;15.65;;;10.43;;
44197;SDS011;30157;55.512;37.764;2022-09-16T03:05:13;16.25;;;10.65;;
44197;SDS011;30157;55.512;37.764;2022-09-16T03:07:39;17.67;;;12.02;;
44197;SDS011;30157;55.512;37.764;2022-09-16T03:10:10;16.88;;;10.00;;
44197;SDS011;30157;55.512;37.764;2022-09-16T03:15:40;15.13;;;10.63;;
44197;SDS011;30157;55.512;37.764;2022-09-16T03:21:45;15.95;;;10.27;;
44197;SDS011;30157;55.512;37.764;2022-09-16T03:30:05;17.15;;;10.60;;
44197;SDS011;30157;55.512;37.764;2022-09-16T03:33:19;16.42;;;11.30;;
44197;SDS011;30157;55.512;37.764;2022-09-16T03:35:33;21.08;;;13.27;;
44197;SDS011;30157;55.512;37.764;2022-09-16T03:38:04;15.60;;;10.25;;
44197;SDS011;30157;55.512;37.764;2022-09-16T03:40:32;14.32;;;10.43;;
44197;SDS011;30157;55.512;37.764;2022-09-16T03:42:58;15.18;;;10.35;;
44197;SDS011;30157;55.512;37.764;2022-09-16T03:45:24;15.55;;;10.30;;
44197;SDS011;30157;55.512;37.764;2022-09-16T03:47:50;15.95;;;10.50;;
44197;SDS011;30157;55.512;37.764;2022-09-16T03:50:19;17.63;;;11.15;;
44197;SDS011;30157;55.512;37.764;2022-09-16T03:52:46;18.20;;;11.45;;
44197;SDS011;30157;55.512;37.764;2022-09-16T03:55:11;17.92;;;11.40;;
44197;SDS011;30157;55.512;37.764;2022-09-16T03:57:38;13.93;;;10.50;;
44197;SDS011;30157;55.512;37.764;2022-09-16T04:00:04;15.93;;;9.63;;
44197;SDS011;30157;55.512;37.764;2022-09-16T04:02:37;13.68;;;9.95;;
44197;SDS011;30157;55.512;37.764;2022-09-16T04:05:03;16.10;;;9.57;;
44197;SDS011;30157;55.512;37.764;2022-09-16T04:07:30;14.60;;;10.45;;
44197;SDS011;30157;55.512;37.764;2022-09-16T04:09:57;15.98;;;10.77;;
44197;SDS011;30157;55.512;37.764;2022-09-16T04:12:23;15.43;;;9.93;;
44197;SDS011;30157;55.512;37.764;2022-09-16T04:14:49;17.77;;;11.07;;
44197;SDS011;30157;55.512;37.764;2022-09-16T04:17:15;16.80;;;11.30;;
44197;SDS011;30157;55.512;37.764;2022-09-16T04:19:43;18.20;;;11.52;;
44197;SDS011;30157;55.512;37.764;2022-09-16T04:22:08;18.23;;;11.30;;
44197;SDS011;30157;55.512;37.764;2022-09-16T04:24:34;16.15;;;10.88;;
44197;SDS011;30157;55.512;37.764;2022-09-16T04:27:00;16.83;;;11.30;;
44197;SDS011;30157;55.512;37.764;2022-09-16T04:29:26;15.30;;;10.23;;
44197;SDS011;30157;55.512;37.764;2022-09-16T04:31:52;16.50;;;10.60;;
44197;SDS011;30157;55.512;37.764;2022-09-16T04:34:18;15.68;;;10.25;;
44197;SDS011;30157;55.512;37.764;2022-09-16T04:36:44;14.43;;;10.02;;
44197;SDS011;30157;55.512;37.764;2022-09-16T04:39:10;18.25;;;10.50;;
44197;SDS011;30157;55.512;37.764;2022-09-16T04:41:36;15.85;;;9.20;;
44197;SDS011;30157;55.512;37.764;2022-09-16T04:44:03;14.48;;;10.02;;
44197;SDS011;30157;55.512;37.764;2022-09-16T04:46:30;15.60;;;10.15;;
44197;SDS011;30157;55.512;37.764;2022-09-16T04:48:57;17.52;;;10.88;;
44197;SDS011;30157;55.512;37.764;2022-09-16T04:51:24;16.98;;;11.68;;
44197;SDS011;30157;55.512;37.764;2022-09-16T04:53:54;16.65;;;11.25;;
44197;SDS011;30157;55.512;37.764;2022-09-16T04:56:22;14.73;;;9.95;;
44197;SDS011;30157;55.512;37.764;2022-09-16T04:58:50;18.13;;;10.68;;
44197;SDS011;30157;55.512;37.764;2022-09-16T05:01:18;16.73;;;10.85;;
44197;SDS011;30157;55.512;37.764;2022-09-16T05:03:47;16.45;;;10.55;;
44197;SDS011;30157;55.512;37.764;2022-09-16T05:06:15;17.17;;;11.15;;
44197;SDS011;30157;55.512;37.764;2022-09-16T05:08:43;14.73;;;9.75;;
44197;SDS011;30157;55.512;37.764;2022-09-16T05:11:10;18.40;;;11.15;;
44197;SDS011;30157;55.512;37.764;2022-09-16T05:13:38;15.90;;;10.48;;
44197;SDS011;30157;55.512;37.764;2022-09-16T05:16:08;14.80;;;9.27;;
44197;SDS011;30157;55.512;37.764;2022-09-16T05:18:36;15.50;;;10.20;;
44197;SDS011;30157;55.512;37.764;2022-09-16T05:21:03;15.73;;;9.75;;
44197;SDS011;30157;55.512;37.764;2022-09-16T05:23:31;15.70;;;10.48;;
44197;SDS011;30157;55.512;37.764;2022-09-16T05:26:01;16.35;;;11.10;;
44197;SDS011;30157;55.512;37.764;2022-09-16T05:28:29;16.50;;;11.05;;
44197;SDS011;30157;55.512;37.764;2022-09-16T05:30:55;17.10;;;10.57;;
44197;SDS011;30157;55.512;37.764;2022-09-16T05:33:20;15.45;;;11.20;;
44197;SDS011;30157;55.512;37.764;2022-09-16T05:35:46;17.33;;;10.93;;
44197;SDS011;30157;55.512;37.764;2022-09-16T05:38:12;16.90;;;11.43;;
44197;SDS011;30157;55.512;37.764;2022-09-16T05:40:38;18.90;;;11.23;;
44197;SDS011;30157;55.512;37.764;2022-09-16T05:43:04;15.95;;;10.23;;
44197;SDS011;30157;55.512;37.764;2022-09-16T05:45:32;15.70;;;11.40;;
44197;SDS011;30157;55.512;37.764;2022-09-16T05:47:58;16.83;;;10.50;;
44197;SDS011;30157;55.512;37.764;2022-09-16T05:50:23;15.35;;;10.70;;
44197;SDS011;30157;55.512;37.764;2022-09-16T05:52:49;17.55;;;11.00;;
44197;SDS011;30157;55.512;37.764;2022-09-16T05:55:15;19.35;;;12.43;;
44197;SDS011;30157;55.512;37.764;2022-09-16T05:57:40;17.00;;;11.07;;
44197;SDS011;30157;55.512;37.764;2022-09-16T06:00:06;18.58;;;11.85;;
44197;SDS011;30157;55.512;37.764;2022-09-16T06:02:35;17.75;;;11.30;;
44197;SDS011;30157;55.512;37.764;2022-09-16T06:05:01;19.30;;;11.52;;
44197;SDS011;30157;55.512;37.764;2022-09-16T06:07:28;15.45;;;10.65;;
44197;SDS011;30157;55.512;37.764;2022-09-16T06:09:54;14.10;;;9.68;;
44197;SDS011;30157;55.512;37.764;2022-09-16T06:12:19;14.48;;;9.93;;
44197;SDS011;30157;55.512;37.764;2022-09-16T06:14:45;17.30;;;11.02;;
44197;SDS011;30157;55.512;37.764;2022-09-16T06:17:13;16.25;;;10.07;;
44197;SDS011;30157;55.512;37.764;2022-09-16T06:19:39;15.02;;;9.85;;
44197;SDS011;30157;55.512;37.764;2022-09-16T06:22:04;17.08;;;11.25;;
44197;SDS011;30157;55.512;37.764;2022-09-16T06:24:30;16.88;;;12.10;;
44197;SDS011;30157;55.512;37.764;2022-09-16T06:26:58;16.30;;;11.15;;
44197;SDS011;30157;55.512;37.764;2022-09-16T06:29:24;17.95;;;11.52;;
44197;SDS011;30157;55.512;37.764;2022-09-16T06:31:50;18.67;;;13.50;;
44197;SDS011;30157;55.512;37.764;2022-09-16T06:34:18;18.20;;;12.35;;
44197;SDS011;30157;55.512;37.764;2022-09-16T06:36:44;20.13;;;12.93;;
44197;SDS011;30157;55.512;37.764;2022-09-16T06:39:10;18.33;;;12.68;;
44197;SDS011;30157;55.512;37.764;2022-09-16T06:41:37;16.98;;;11.85;;
44197;SDS011;30157;55.512;37.764;2022-09-16T06:44:03;14.77;;;10.60;;
44197;SDS011;30157;55.512;37.764;2022-09-16T06:46:30;16.75;;;11.63;;
44197;SDS011;30157;55.512;37.764;2022-09-16T06:48:57;19.63;;;11.63;;
44197;SDS011;30157;55.512;37.764;2022-09-16T06:51:23;16.90;;;11.25;;
44197;SDS011;30157;55.512;37.764;2022-09-16T06:53:51;17.05;;;12.20;;
44197;SDS011;30157;55.512;37.764;2022-09-16T06:56:18;18.95;;;11.98;;
44197;SDS011;30157;55.512;37.764;2022-09-16T06:58:46;16.63;;;11.52;;
44197;SDS011;30157;55.512;37.764;2022-09-16T07:01:14;15.07;;;11.02;;
44197;SDS011;30157;55.512;37.764;2022-09-16T07:03:42;20.17;;;12.27;;
44197;SDS011;30157;55.512;37.764;2022-09-16T07:06:09;14.95;;;11.18;;
44197;SDS011;30157;55.512;37.764;2022-09-16T07:08:36;16.02;;;12.10;;
44197;SDS011;30157;55.512;37.764;2022-09-16T07:11:10;15.15;;;11.02;;
44197;SDS011;30157;55.512;37.764;2022-09-16T07:13:38;14.13;;;10.73;;
44197;SDS011;30157;55.512;37.764;2022-09-16T07:16:05;13.45;;;10.10;;
44197;SDS011;30157;55.512;37.764;2022-09-16T07:18:33;14.18;;;10.25;;
44197;SDS011;30157;55.512;37.764;2022-09-16T07:20:59;15.75;;;10.75;;
44197;SDS011;30157;55.512;37.764;2022-09-16T07:23:28;14.48;;;9.77;;
44197;SDS011;30157;55.512;37.764;2022-09-16T07:26:02;12.30;;;8.85;;
44197;SDS011;30157;55.512;37.764;2022-09-16T07:28:34;16.50;;;9.75;;
44197;SDS011;30157;55.512;37.764;2022-09-16T07:31:02;12.35;;;9.23;;
44197;SDS011;30157;55.512;37.764;2022-09-16T07:33:29;12.95;;;9.45;;
44197;SDS011;30157;55.512;37.764;2022-09-16T07:36:00;12.93;;;8.50;;
44197;SDS011;30157;55.512;37.764;2022-09-16T07:38:28;13.15;;;8.93;;
44197;SDS011;30157;55.512;37.764;2022-09-16T07:40:54;13.52;;;10.20;;
44197;SDS011;30157;55.512;37.764;2022-09-16T07:43:20;12.15;;;8.82;;
44197;SDS011;30157;55.512;37.764;2022-09-16T07:45:46;13.02;;;9.25;;
44197;SDS011;30157;55.512;37.764;2022-09-16T07:48:19;11.93;;;7.90;;
44197;SDS011;30157;55.512;37.764;2022-09-16T07:50:52;11.68;;;8.25;;
44197;SDS011;30157;55.512;37.764;2022-09-16T07:53:19;13.02;;;9.05;;
44197;SDS011;30157;55.512;37.764;2022-09-16T07:55:44;13.43;;;7.93;;
44197;SDS011;30157;55.512;37.764;2022-09-16T07:58:13;12.05;;;8.40;;
44197;SDS011;30157;55.512;37.764;2022-09-16T08:00:39;13.05;;;9.18;;
44197;SDS011;30157;55.512;37.764;2022-09-16T08:03:04;12.15;;;8.50;;
44197;SDS011;30157;55.512;37.764;2022-09-16T08:05:30;10.57;;;7.97;;
44197;SDS011;30157;55.512;37.764;2022-09-16T08:07:56;12.75;;;7.90;;
44197;SDS011;30157;55.512;37.764;2022-09-16T08:10:21;10.57;;;7.93;;
44197;SDS011;30157;55.512;37.764;2022-09-16T08:12:47;13.55;;;7.63;;
44197;SDS011;30157;55.512;37.764;2022-09-16T08:15:13;11.38;;;8.15;;
44197;SDS011;30157;55.512;37.764;2022-09-16T08:17:43;12.40;;;9.05;;
44197;SDS011;30157;55.512;37.764;2022-09-16T08:20:09;14.30;;;10.13;;
44197;SDS011;30157;55.512;37.764;2022-09-16T08:22:34;12.20;;;8.95;;
44197;SDS011;30157;55.512;37.764;2022-09-16T08:25:00;10.52;;;8.55;;
44197;SDS011;30157;55.512;37.764;2022-09-16T08:27:26;14.15;;;8.60;;
44197;SDS011;30157;55.512;37.764;2022-09-16T08:29:52;10.85;;;8.52;;
44197;SDS011;30157;55.512;37.764;2022-09-16T08:32:17;13.70;;;8.93;;
44197;SDS011;30157;55.512;37.764;2022-09-16T08:34:43;13.02;;;9.13;;
44197;SDS011;30157;55.512;37.764;2022-09-16T08:37:09;17.88;;;8.93;;
44197;SDS011;30157;55.512;37.764;2022-09-16T08:39:34;13.93;;;9.73;;
44197;SDS011;30157;55.512;37.764;2022-09-16T08:42:04;17.13;;;9.73;;
44197;SDS011;30157;55.512;37.764;2022-09-16T08:49:57;10.85;;;8.00;;
44197;SDS011;30157;55.512;37.764;2022-09-16T08:52:33;11.32;;;8.70;;
44197;SDS011;30157;55.512;37.764;2022-09-16T08:55:10;16.23;;;8.00;;
44197;SDS011;30157;55.512;37.764;2022-09-16T08:57:47;11.43;;;8.35;;
44197;SDS011;30157;55.512;37.764;2022-09-16T09:00:37;10.98;;;7.97;;
44197;SDS011;30157;55.512;37.764;2022-09-16T09:03:13;11.23;;;8.00;;
44197;SDS011;30157;55.512;37.764;2022-09-16T09:11:05;12.55;;;7.80;;
44197;SDS011;30157;55.512;37.764;2022-09-16T09:14:01;13.43;;;7.70;;
44197;SDS011;30157;55.512;37.764;2022-09-16T09:22:00;13.15;;;7.30;;
44197;SDS011;30157;55.512;37.764;2022-09-16T09:31:04;9.25;;;6.03;;
44197;SDS011;30157;55.512;37.764;2022-09-16T09:33:59;10.85;;;6.55;;
44197;SDS011;30157;55.512;37.764;2022-09-16T09:36:49;8.30;;;6.00;;
44197;SDS011;30157;55.512;37.764;2022-09-16T09:39:38;10.43;;;6.70;;
44197;SDS011;30157;55.512;37.764;2022-09-16T09:44:59;7.38;;;5.63;;
44197;SDS011;30157;55.512;37.764;2022-09-16T09:47:35;12.02;;;5.82;;
44197;SDS011;30157;55.512;37.764;2022-09-16T09:50:11;12.40;;;6.57;;
44197;SDS011;30157;55.512;37.764;2022-09-16T09:52:47;9.60;;;6.40;;
44197;SDS011;30157;55.512;37.764;2022-09-16T09:55:34;9.75;;;6.40;;
44197;SDS011;30157;55.512;37.764;2022-09-16T10:00:44;12.90;;;5.65;;
44197;SDS011;30157;55.512;37.764;2022-09-16T10:03:11;9.90;;;5.70;;
44197;SDS011;30157;55.512;37.764;2022-09-16T10:05:39;9.25;;;6.03;;
44197;SDS011;30157;55.512;37.764;2022-09-16T10:10:51;8.05;;;5.60;;
44197;SDS011;30157;55.512;37.764;2022-09-16T10:13:18;7.28;;;5.05;;
44197;SDS011;30157;55.512;37.764;2022-09-16T10:15:45;6.70;;;4.38;;
44197;SDS011;30157;55.512;37.764;2022-09-16T10:18:23;7.55;;;5.28;;
44197;SDS011;30157;55.512;37.764;2022-09-16T10:20:59;8.77;;;5.68;;
44197;SDS011;30157;55.512;37.764;2022-09-16T10:23:36;8.27;;;5.47;;
44197;SDS011;30157;55.512;37.764;2022-09-16T10:26:04;7.47;;;5.30;;
44197;SDS011;30157;55.512;37.764;2022-09-16T10:28:33;7.38;;;5.50;;
44197;SDS011;30157;55.512;37.764;2022-09-16T10:30:59;6.45;;;4.78;;
44197;SDS011;30157;55.512;37.764;2022-09-16T10:33:29;8.25;;;5.07;;
44197;SDS011;30157;55.512;37.764;2022-09-16T10:36:04;8.25;;;4.82;;
44197;SDS011;30157;55.512;37.764;2022-09-16T10:41:13;8.02;;;5.72;;
44197;SDS011;30157;55.512;37.764;2022-09-16T10:43:49;8.63;;;5.82;;
44197;SDS011;30157;55.512;37.764;2022-09-16T10:46:17;8.70;;;5.13;;
44197;SDS011;30157;55.512;37.764;2022-09-16T10:48:43;6.97;;;5.47;;
44197;SDS011;30157;55.512;37.764;2022-09-16T10:51:19;7.65;;;5.00;;
44197;SDS011;30157;55.512;37.764;2022-09-16T10:53:59;7.70;;;4.85;;
44197;SDS011;30157;55.512;37.764;2022-09-16T10:56:28;7.73;;;5.33;;
44197;SDS011;30157;55.512;37.764;2022-09-16T11:04:40;8.57;;;5.90;;
44197;SDS011;30157;55.512;37.764;2022-09-16T11:10:47;8.15;;;5.78;;
44197;SDS011;30157;55.512;37.764;2022-09-16T11:35:25;7.25;;;4.57;;
44197;SDS011;30157;55.512;37.764;2022-09-16T11:44:04;6.68;;;4.40;;
44197;SDS011;30157;55.512;37.764;2022-09-16T11:54:39;6.93;;;4.70;;
44197;SDS011;30157;55.512;37.764;2022-09-16T11:57:20;6.47;;;4.60;;
44197;SDS011;30157;55.512;37.764;2022-09-16T12:02:28;5.35;;;3.42;;
44197;SDS011;30157;55.512;37.764;2022-09-16T12:05:21;6.75;;;4.78;;
44197;SDS011;30157;55.512;37.764;2022-09-16T12:07:54;5.15;;;3.60;;
44197;SDS011;30157;55.512;37.764;2022-09-16T12:10:29;4.65;;;3.55;;
44197;SDS011;30157;55.512;37.764;2022-09-16T12:16:00;7.07;;;4.20;;
44197;SDS011;30157;55.512;37.764;2022-09-16T12:18:40;6.00;;;4.03;;
44197;SDS011;30157;55.512;37.764;2022-09-16T12:21:14;5.07;;;4.13;;
44197;SDS011;30157;55.512;37.764;2022-09-16T12:26:56;4.93;;;4.30;;
44197;SDS011;30157;55.512;37.764;2022-09-16T12:32:07;5.63;;;4.07;;
44197;SDS011;30157;55.512;37.764;2022-09-16T12:34:40;4.97;;;4.10;;
44197;SDS011;30157;55.512;37.764;2022-09-16T12:40:14;8.57;;;4.97;;
44197;SDS011;30157;55.512;37.764;2022-09-16T12:51:07;9.05;;;5.15;;
44197;SDS011;30157;55.512;37.764;2022-09-16T12:53:49;7.53;;;5.40;;
44197;SDS011;30157;55.512;37.764;2022-09-16T13:02:09;7.43;;;4.60;;
44197;SDS011;30157;55.512;37.764;2022-09-16T13:04:41;7.55;;;4.75;;
44197;SDS011;30157;55.512;37.764;2022-09-16T13:07:29;7.13;;;5.10;;
44197;SDS011;30157;55.512;37.764;2022-09-16T13:09:59;9.35;;;5.50;;
44197;SDS011;30157;55.512;37.764;2022-09-16T13:12:47;10.25;;;7.18;;
44197;SDS011;30157;55.512;37.764;2022-09-16T13:15:28;10.50;;;6.00;;
44197;SDS011;30157;55.512;37.764;2022-09-16T13:18:07;12.07;;;8.63;;
44197;SDS011;30157;55.512;37.764;2022-09-16T13:20:39;14.38;;;8.52;;
44197;SDS011;30157;55.512;37.764;2022-09-16T13:23:27;15.50;;;9.18;;
44197;SDS011;30157;55.512;37.764;2022-09-16T13:31:43;13.35;;;8.07;;
44197;SDS011;30157;55.512;37.764;2022-09-16T13:38:50;15.02;;;7.60;;
44197;SDS011;30157;55.512;37.764;2022-09-16T13:49:45;8.50;;;5.20;;
44197;SDS011;30157;55.512;37.764;2022-09-16T13:54:50;8.98;;;5.63;;
44197;SDS011;30157;55.512;37.764;2022-09-16T13:57:54;9.38;;;4.90;;
44197;SDS011;30157;55.512;37.764;2022-09-16T14:00:39;10.75;;;4.82;;
44197;SDS011;30157;55.512;37.764;2022-09-16T14:14:42;10.02;;;6.97;;
44197;SDS011;30157;55.512;37.764;2022-09-16T14:17:13;8.70;;;6.50;;
44197;SDS011;30157;55.512;37.764;2022-09-16T14:19:46;10.43;;;6.88;;
44197;SDS011;30157;55.512;37.764;2022-09-16T14:22:16;11.88;;;6.75;;
44197;SDS011;30157;55.512;37.764;2022-09-16T14:24:46;11.77;;;6.53;;
44197;SDS011;30157;55.512;37.764;2022-09-16T14:30:17;14.95;;;6.60;;
44197;SDS011;30157;55.512;37.764;2022-09-16T14:32:43;14.02;;;6.90;;
44197;SDS011;30157;55.512;37.764;2022-09-16T14:35:15;16.25;;;8.18;;
44197;SDS011;30157;55.512;37.764;2022-09-16T14:37:44;12.02;;;8.38;;
44197;SDS011;30157;55.512;37.764;2022-09-16T14:40:15;12.68;;;7.43;;
44197;SDS011;30157;55.512;37.764;2022-09-16T14:42:50;11.23;;;6.60;;
44197;SDS011;30157;55.512;37.764;2022-09-16T14:45:21;11.80;;;7.00;;
44197;SDS011;30157;55.512;37.764;2022-09-16T14:47:48;15.00;;;7.22;;
44197;SDS011;30157;55.512;37.764;2022-09-16T14:52:54;13.13;;;8.13;;
44197;SDS011;30157;55.512;37.764;2022-09-16T14:55:28;14.32;;;8.13;;
44197;SDS011;30157;55.512;37.764;2022-09-16T14:57:56;14.90;;;7.30;;
44197;SDS011;30157;55.512;37.764;2022-09-16T15:00:27;13.90;;;7.90;;
44197;SDS011;30157;55.512;37.764;2022-09-16T15:05:35;17.67;;;7.97;;
44197;SDS011;30157;55.512;37.764;2022-09-16T15:08:15;18.77;;;9.30;;
44197;SDS011;30157;55.512;37.764;2022-09-16T15:10:45;15.50;;;8.75;;
44197;SDS011;30157;55.512;37.764;2022-09-16T15:13:13;16.40;;;9.30;;
44197;SDS011;30157;55.512;37.764;2022-09-16T15:15:52;12.43;;;8.48;;
44197;SDS011;30157;55.512;37.764;2022-09-16T15:18:26;13.10;;;9.00;;
44197;SDS011;30157;55.512;37.764;2022-09-16T15:23:37;11.48;;;7.45;;
44197;SDS011;30157;55.512;37.764;2022-09-16T15:26:10;12.20;;;7.68;;
44197;SDS011;30157;55.512;37.764;2022-09-16T15:28:52;11.35;;;7.65;;
44197;SDS011;30157;55.512;37.764;2022-09-16T15:31:40;12.88;;;8.50;;
44197;SDS011;30157;55.512;37.764;2022-09-16T15:36:50;14.15;;;9.13;;
44197;SDS011;30157;55.512;37.764;2022-09-16T15:41:50;12.38;;;7.78;;
44197;SDS011;30157;55.512;37.764;2022-09-16T15:44:32;10.55;;;7.35;;
44197;SDS011;30157;55.512;37.764;2022-09-16T15:46:58;12.95;;;8.30;;
44197;SDS011;30157;55.512;37.764;2022-09-16T15:49:24;10.75;;;8.00;;
44197;SDS011;30157;55.512;37.764;2022-09-16T15:51:54;13.73;;;9.10;;
44197;SDS011;30157;55.512;37.764;2022-09-16T15:57:12;15.02;;;9.13;;
44197;SDS011;30157;55.512;37.764;2022-09-16T16:05:07;13.10;;;9.18;;
44197;SDS011;30157;55.512;37.764;2022-09-16T16:07:46;13.32;;;8.70;;
44197;SDS011;30157;55.512;37.764;2022-09-16T16:10:18;15.82;;;10.10;;
44197;SDS011;30157;55.512;37.764;2022-09-16T16:12:49;13.35;;;9.10;;
44197;SDS011;30157;55.512;37.764;2022-09-16T16:15:20;16.42;;;10.77;;
44197;SDS011;30157;55.512;37.764;2022-09-16T16:17:50;17.55;;;11.57;;
44197;SDS011;30157;55.512;37.764;2022-09-16T16:20:19;18.35;;;12.02;;
44197;SDS011;30157;55.512;37.764;2022-09-16T16:22:47;15.82;;;10.65;;
44197;SDS011;30157;55.512;37.764;2022-09-16T16:25:13;15.23;;;10.05;;
44197;SDS011;30157;55.512;37.764;2022-09-16T16:27:39;20.70;;;13.40;;
44197;SDS011;30157;55.512;37.764;2022-09-16T16:30:05;14.75;;;9.57;;
44197;SDS011;30157;55.512;37.764;2022-09-16T16:32:31;16.80;;;10.95;;
44197;SDS011;30157;55.512;37.764;2022-09-16T16:35:06;14.15;;;9.20;;
44197;SDS011;30157;55.512;37.764;2022-09-16T16:37:32;14.07;;;9.20;;
44197;SDS011;30157;55.512;37.764;2022-09-16T16:40:01;14.35;;;8.90;;
44197;SDS011;30157;55.512;37.764;2022-09-16T16:42:29;15.43;;;10.48;;
44197;SDS011;30157;55.512;37.764;2022-09-16T16:44:55;14.55;;;8.98;;
44197;SDS011;30157;55.512;37.764;2022-09-16T16:47:21;11.80;;;8.02;;
44197;SDS011;30157;55.512;37.764;2022-09-16T16:49:48;10.27;;;7.68;;
44197;SDS011;30157;55.512;37.764;2022-09-16T16:52:15;9.85;;;7.15;;
44197;SDS011;30157;55.512;37.764;2022-09-16T16:54:40;10.07;;;6.97;;
44197;SDS011;30157;55.512;37.764;2022-09-16T16:57:08;11.93;;;7.85;;
44197;SDS011;30157;55.512;37.764;2022-09-16T16:59:35;9.70;;;7.47;;
44197;SDS011;30157;55.512;37.764;2022-09-16T17:02:01;8.02;;;6.13;;
44197;SDS011;30157;55.512;37.764;2022-09-16T17:04:28;9.02;;;6.68;;
44197;SDS011;30157;55.512;37.764;2022-09-16T17:06:54;8.35;;;6.32;;
44197;SDS011;30157;55.512;37.764;2022-09-16T17:09:20;10.32;;;7.18;;
44197;SDS011;30157;55.512;37.764;2022-09-16T17:11:53;8.13;;;6.28;;
44197;SDS011;30157;55.512;37.764;2022-09-16T17:14:24;8.93;;;6.43;;
44197;SDS011;30157;55.512;37.764;2022-09-16T17:16:52;11.10;;;8.20;;
44197;SDS011;30157;55.512;37.764;2022-09-16T17:19:19;11.32;;;7.63;;
44197;SDS011;30157;55.512;37.764;2022-09-16T17:21:46;8.77;;;6.03;;
44197;SDS011;30157;55.512;37.764;2022-09-16T17:24:16;11.23;;;8.30;;
44197;SDS011;30157;55.512;37.764;2022-09-16T17:26:42;9.65;;;6.90;;
44197;SDS011;30157;55.512;37.764;2022-09-16T17:29:09;10.48;;;7.60;;
44197;SDS011;30157;55.512;37.764;2022-09-16T17:31:35;7.30;;;5.15;;
44197;SDS011;30157;55.512;37.764;2022-09-16T17:34:06;8.57;;;6.32;;
44197;SDS011;30157;55.512;37.764;2022-09-16T17:36:38;8.63;;;6.05;;
44197;SDS011;30157;55.512;37.764;2022-09-16T17:39:06;9.95;;;6.90;;
44197;SDS011;30157;55.512;37.764;2022-09-16T17:41:35;8.77;;;6.30;;
44197;SDS011;30157;55.512;37.764;2022-09-16T17:44:05;8.75;;;6.85;;
44197;SDS011;30157;55.512;37.764;2022-09-16T17:46:32;12.40;;;8.32;;
44197;SDS011;30157;55.512;37.764;2022-09-16T17:48:59;9.50;;;7.10;;
44197;SDS011;30157;55.512;37.764;2022-09-16T17:51:29;11.38;;;7.63;;
44197;SDS011;30157;55.512;37.764;2022-09-16T17:53:55;10.32;;;7.85;;
44197;SDS011;30157;55.512;37.764;2022-09-16T17:56:22;11.00;;;7.43;;
44197;SDS011;30157;55.512;37.764;2022-09-16T17:58:49;11.15;;;8.23;;
44197;SDS011;30157;55.512;37.764;2022-09-16T18:01:18;14.13;;;10.32;;
44197;SDS011;30157;55.512;37.764;2022-09-16T18:03:46;12.68;;;9.25;;
44197;SDS011;30157;55.512;37.764;2022-09-16T18:09:09;14.25;;;10.07;;